Airfield :
LOGIN :

Register | Disclaimer

   EN    FR    IT 

 










Legend :    VFR   Marginal VFR   IFR   Intensive IFR   Very Intensive IFR
Visi :
Ceiling :
>= 8 km
>= 3000ft
5 to 8 km
1000 to 3000 ft
1500m to 5 km
500 to 1000 ft
800 to 1500m
200 to 500 ft
< 800m
< 200 ft
Symbols :   Thunderstorms  Fog  Heavy snow  Heavy precipitations  Wind > 20 kt
SIGMETs :     Misc.  Thunderstorms  Icing  Turbulence  Mountain Waves  Volcanic Ashes






- Airport Elevation : 204 ft
- IATA code : AGF


LFBA - Agen

CURRENT METAR :
  • 271330Z AUTO 29009KT 260V320 9999 FEW029 SCT037 BKN043 22/17 Q1022 TEMPO 4000 SHRA FEW020TCU BKN025

EXPIRED METARs :
  • 271300Z AUTO 29013KT 9999 BKN042 BKN052 BKN082 24/16 Q1021 TEMPO 4000 SHRA FEW020TCU BKN025
  • 271230Z AUTO 27010KT 240V300 9999 SCT039 SCT046 BKN058 24/16 Q1021 TEMPO 4000 SHRA FEW020TCU BKN025
  • 271200Z AUTO 29013KT 9999 FEW039 SCT046 BKN052 24/16 Q1021 TEMPO 4000 SHRA FEW020TCU BKN025
  • 271130Z AUTO 31010KT 270V330 9999 BKN038 24/16 Q1021 NOSIG

TAF TAF LFBA
Valid from the 27 at 12:00 until the 27 at 21:00 UTC


271100Z 2712/2721 30010KT 9999 BKN040
PROB30
TEMPO 2712/2716 4000 SHRA FEW020TCU BKN025
BECMG 2718/2720 VRB03KT



MET'MAP, your aeronautical weather chart ! - Copyright ORBIFLY December 2007 - Disclaimer

ORBIFLY MET'MAP TEAM :

Programming & Development : Alexandra Zaïnal
Concept & original design : Baudouin d'Aumeries
Assistance for programming : Marc-Olivier Méhu
Technical & hardware support : Manuel Goepfert

Contact : metmap@orbifly.com




SOURCES & CREDITS :

   NOAA